createdAt,value
2023-04-06T05:55:57.881Z,7.27
2023-04-06T05:58:27.385Z,8.40
2023-04-06T06:00:59.651Z,9.53
2023-04-06T06:03:30.592Z,7.87
2023-04-06T06:06:03.592Z,7.47
2023-04-06T06:08:42.701Z,8.47
2023-04-06T06:11:15.078Z,7.20
2023-04-06T06:13:42.876Z,6.97
2023-04-06T06:16:11.025Z,7.37
2023-04-06T06:18:47.009Z,7.93
2023-04-06T06:21:14.844Z,7.80
2023-04-06T06:23:43.740Z,9.90
2023-04-06T06:26:15.627Z,6.50
2023-04-06T06:28:43.640Z,7.30
2023-04-06T06:31:14.727Z,14.17
2023-04-06T06:33:46.094Z,5.77
2023-04-06T06:36:14.095Z,4.83
2023-04-06T06:38:45.627Z,4.87
2023-04-06T06:41:13.256Z,4.57
2023-04-06T06:43:41.026Z,4.80
2023-04-06T06:46:10.486Z,4.83
2023-04-06T06:48:37.920Z,5.67
2023-04-06T06:51:05.316Z,5.20
2023-04-06T06:53:32.698Z,5.40
2023-04-06T06:56:00.084Z,4.47
2023-04-06T06:58:27.673Z,4.47
2023-04-06T07:00:58.905Z,4.23
2023-04-06T07:03:26.863Z,4.53
2023-04-06T07:05:55.971Z,4.20
2023-04-06T07:08:25.567Z,4.00
2023-04-06T07:10:53.787Z,3.90
2023-04-06T07:13:23.706Z,3.83
2023-04-06T07:15:54.288Z,4.43
2023-04-06T07:18:22.042Z,4.00
2023-04-06T07:20:49.488Z,4.23
2023-04-06T07:23:17.644Z,4.30
2023-04-06T07:25:46.117Z,4.07
2023-04-06T07:28:13.506Z,4.20
2023-04-06T07:30:41.759Z,4.00
2023-04-06T07:33:10.953Z,4.03
2023-04-06T07:35:38.787Z,4.13
2023-04-06T07:38:07.098Z,6.67
2023-04-06T07:40:35.730Z,4.57
2023-04-06T07:43:04.114Z,4.43
2023-04-06T07:45:35.474Z,4.33
2023-04-06T07:48:03.560Z,4.20
2023-04-06T07:50:32.337Z,4.03
2023-04-06T07:53:00.906Z,4.23
2023-04-06T07:55:28.836Z,4.37
2023-04-06T07:57:56.294Z,4.17
2023-04-06T08:00:23.781Z,4.43
2023-04-06T08:02:51.570Z,4.63
2023-04-06T08:05:19.127Z,4.63
2023-04-06T08:07:46.539Z,5.13
2023-04-06T08:10:13.933Z,4.40
2023-04-06T08:12:41.280Z,4.30
2023-04-06T08:15:08.806Z,5.00
2023-04-06T08:17:36.210Z,4.90
2023-04-06T08:20:04.633Z,4.57
2023-04-06T08:22:32.218Z,4.20
2023-04-06T08:24:59.634Z,4.83
2023-04-06T08:27:27.307Z,5.00
2023-04-06T08:29:54.801Z,4.90
2023-04-06T08:32:22.288Z,4.70
2023-04-06T08:34:49.600Z,4.63
2023-04-06T08:37:16.995Z,4.60
2023-04-06T08:39:44.994Z,4.50
2023-04-06T08:42:17.287Z,4.60
2023-04-06T08:44:51.291Z,5.10
2023-04-06T08:47:18.789Z,4.90
2023-04-06T08:49:46.409Z,4.80
2023-04-06T08:52:14.066Z,5.90
2023-04-06T08:54:41.387Z,5.30
2023-04-06T08:57:08.996Z,4.80
2023-04-06T08:59:37.588Z,4.77
2023-04-06T09:02:06.449Z,5.40
2023-04-06T09:04:34.762Z,5.17
2023-04-06T09:07:02.571Z,5.20
2023-04-06T09:09:30.073Z,5.70
2023-04-06T09:12:02.847Z,5.00
2023-04-06T09:14:37.645Z,5.13
2023-04-06T09:17:05.565Z,9.87
2023-04-06T09:19:33.020Z,9.63
2023-04-06T09:22:09.884Z,5.23
2023-04-06T09:24:43.040Z,8.03
2023-04-06T09:27:10.513Z,5.10
2023-04-06T09:29:40.769Z,5.33
2023-04-06T09:32:08.933Z,6.20
2023-04-06T09:34:36.418Z,6.07
2023-04-06T09:37:13.740Z,5.60
2023-04-06T09:39:41.286Z,5.70
2023-04-06T09:42:08.649Z,5.70
2023-04-06T09:44:36.148Z,5.40
2023-04-06T09:47:04.584Z,5.73
2023-04-06T09:49:36.532Z,5.83
2023-04-06T09:52:05.772Z,6.87
2023-04-06T09:54:34.035Z,6.57
2023-04-06T09:57:16.250Z,6.53
2023-04-06T10:00:04.876Z,6.07
2023-04-06T10:02:32.481Z,6.40
2023-04-06T10:05:23.032Z,7.73
2023-04-06T10:08:00.105Z,5.77
2023-04-06T10:10:30.005Z,6.10
2023-04-06T10:12:58.040Z,10.23
2023-04-06T10:15:25.650Z,9.30
2023-04-06T10:17:53.365Z,9.70
2023-04-06T10:20:33.146Z,9.87
2023-04-06T10:23:20.634Z,14.17
2023-04-06T10:25:57.903Z,13.07
2023-04-06T10:28:26.619Z,10.80
2023-04-06T10:31:02.308Z,9.70
2023-04-06T10:33:30.240Z,10.87
2023-04-06T10:35:57.733Z,10.40
2023-04-06T10:38:41.480Z,10.43
2023-04-06T10:41:10.695Z,11.60
2023-04-06T10:43:39.160Z,10.07
2023-04-06T10:46:07.401Z,12.70
2023-04-06T10:48:39.549Z,11.63
2023-04-06T10:51:09.583Z,12.97
2023-04-06T10:53:36.949Z,11.60
2023-04-06T10:56:06.247Z,11.27
2023-04-06T10:58:33.690Z,11.77
2023-04-06T11:01:02.064Z,12.07
2023-04-06T11:03:31.210Z,9.77
2023-04-06T11:05:58.726Z,9.83
2023-04-06T11:08:31.623Z,9.60
2023-04-06T11:11:06.377Z,10.93
2023-04-06T11:13:53.212Z,10.73
2023-04-06T11:16:24.369Z,10.90
2023-04-06T11:18:57.402Z,12.70
2023-04-06T11:21:34.491Z,13.30
2023-04-06T11:24:07.506Z,12.87
2023-04-06T11:26:39.048Z,11.00
2023-04-06T11:29:06.982Z,10.70
2023-04-06T11:31:39.491Z,10.50
2023-04-06T11:34:13.524Z,11.00
2023-04-06T11:36:44.694Z,10.53
2023-04-06T11:39:12.448Z,10.10
2023-04-06T11:41:39.931Z,14.43
2023-04-06T11:44:08.725Z,19.43
2023-04-06T11:46:36.307Z,9.80
2023-04-06T11:49:04.363Z,9.13
2023-04-06T11:51:31.773Z,11.17
2023-04-06T11:53:59.157Z,8.90
2023-04-06T11:56:30.738Z,9.50
2023-04-06T11:59:02.869Z,8.43
2023-04-06T12:01:34.190Z,7.90
2023-04-06T12:04:04.972Z,8.20
2023-04-06T12:06:32.524Z,8.70
2023-04-06T12:08:59.969Z,9.63
2023-04-06T12:11:27.369Z,8.10
2023-04-06T12:13:55.907Z,7.90
2023-04-06T12:16:25.216Z,9.37
2023-04-06T12:18:53.182Z,7.93
2023-04-06T12:21:20.719Z,8.07
2023-04-06T12:23:49.485Z,8.53
2023-04-06T12:26:16.868Z,8.10
2023-04-06T12:28:45.925Z,8.03
2023-04-06T12:31:19.961Z,10.00
2023-04-06T12:33:51.310Z,8.53
2023-04-06T12:36:20.709Z,9.03
2023-04-06T12:38:52.090Z,7.50
2023-04-06T12:41:20.652Z,7.93
2023-04-06T12:43:49.744Z,8.83
2023-04-06T12:46:18.212Z,7.30
2023-04-06T12:48:45.723Z,8.50
2023-04-06T12:51:14.677Z,7.17
2023-04-06T12:53:44.816Z,7.10
2023-04-06T12:56:14.365Z,6.20
2023-04-06T13:02:29.541Z,6.70
2023-04-06T13:04:57.806Z,6.97
2023-04-06T13:07:26.430Z,9.13
2023-04-06T13:09:54.936Z,7.23
2023-04-06T13:12:22.810Z,8.47
2023-04-06T13:14:53.502Z,6.33
2023-04-06T13:17:22.218Z,6.83
2023-04-06T13:19:49.707Z,6.80
2023-04-06T13:22:17.188Z,6.47
2023-04-06T13:24:46.196Z,6.57
2023-04-06T13:27:13.698Z,7.40
2023-04-06T13:29:41.791Z,8.60
2023-04-06T13:32:11.405Z,8.70
2023-04-06T13:34:39.057Z,7.20
2023-04-06T13:37:06.461Z,8.43
2023-04-06T13:39:34.040Z,12.43
2023-04-06T13:42:03.453Z,7.40
2023-04-06T13:44:31.546Z,6.77
2023-04-06T13:46:59.215Z,7.20
2023-04-06T13:49:26.541Z,7.17
2023-04-06T13:51:53.948Z,6.50
2023-04-06T13:54:21.849Z,6.80
2023-04-06T13:56:49.304Z,6.73
2023-04-06T13:59:16.827Z,6.27
2023-04-06T14:01:44.268Z,7.10
2023-04-06T14:04:11.723Z,7.00
2023-04-06T14:06:40.151Z,7.17
2023-04-06T14:09:07.593Z,10.33
2023-04-06T14:11:35.111Z,6.80
2023-04-06T14:14:02.721Z,6.97
2023-04-06T14:16:30.574Z,7.73
2023-04-06T14:18:59.105Z,7.17
2023-04-06T14:21:27.520Z,7.17
2023-04-06T14:23:55.814Z,7.27
2023-04-06T14:26:24.677Z,7.50
2023-04-06T14:28:52.876Z,7.60
2023-04-06T14:31:23.017Z,7.43
2023-04-06T14:33:54.709Z,7.63
2023-04-06T14:36:23.638Z,7.63
2023-04-06T14:38:53.384Z,7.50
2023-04-06T17:34:11.358Z,10.97
2023-04-06T17:36:38.801Z,11.10
2023-04-06T17:39:06.589Z,10.37
2023-04-06T17:41:34.779Z,13.97
2023-04-06T17:44:02.246Z,11.07
2023-04-06T17:46:29.556Z,10.67
2023-04-06T17:48:56.905Z,11.07
2023-04-06T17:51:25.028Z,11.50
2023-04-06T17:53:52.588Z,11.27
2023-04-06T17:56:20.146Z,11.03
2023-04-06T17:58:47.517Z,11.53
2023-04-06T18:01:14.987Z,11.30
2023-04-06T18:03:42.378Z,11.83
2023-04-06T18:06:16.287Z,11.47
2023-04-06T18:08:44.167Z,11.07
2023-04-06T18:11:25.637Z,12.03
2023-04-06T18:13:53.209Z,12.03
2023-04-06T18:16:21.398Z,13.13
2023-04-06T18:18:49.232Z,12.77
2023-04-06T18:21:16.809Z,12.17
2023-04-06T18:23:44.139Z,12.60
2023-04-06T18:26:17.289Z,12.17
2023-04-06T18:28:44.785Z,12.27
2023-04-06T18:31:12.183Z,12.87
2023-04-06T18:33:39.554Z,13.20
2023-04-06T18:36:07.191Z,12.53
2023-04-06T18:38:34.528Z,13.17
2023-04-06T18:41:01.959Z,12.47
2023-04-06T18:43:29.556Z,11.97
2023-04-06T18:45:56.941Z,12.03
2023-04-06T18:48:24.255Z,12.60
2023-04-06T18:51:01.930Z,12.23
2023-04-06T18:53:29.598Z,12.77
2023-04-06T18:55:57.576Z,12.67
2023-04-06T18:58:28.170Z,11.63
2023-04-06T19:00:57.410Z,12.10
2023-04-06T19:03:24.945Z,12.60
2023-04-06T19:05:52.527Z,12.53
2023-04-06T19:08:19.908Z,12.60
2023-04-06T19:10:49.314Z,13.87
2023-04-06T19:13:16.806Z,13.53
2023-04-06T19:15:44.228Z,12.87
2023-04-06T19:18:11.539Z,12.57
2023-04-06T19:20:38.904Z,13.57
2023-04-06T19:23:06.521Z,13.83
2023-04-06T19:25:33.945Z,13.57
2023-04-06T19:28:01.702Z,13.20
2023-04-06T19:30:29.022Z,13.60
2023-04-06T19:32:56.566Z,12.67
2023-04-06T19:35:24.315Z,13.03
2023-04-06T19:37:52.815Z,12.13
2023-04-06T19:40:21.289Z,12.93
2023-04-06T19:42:48.608Z,13.20
2023-04-06T19:45:15.998Z,12.17
2023-04-06T19:47:43.387Z,12.53
2023-04-06T19:50:11.542Z,12.30
2023-04-06T19:52:38.883Z,12.50
2023-04-06T19:55:06.390Z,12.33
2023-04-06T19:57:33.778Z,11.73
2023-04-06T20:00:01.308Z,12.40
2023-04-06T20:02:37.096Z,12.87
2023-04-06T20:05:04.546Z,13.00
2023-04-06T20:07:32.199Z,13.50
2023-04-06T20:10:02.174Z,13.43
2023-04-06T20:12:29.477Z,13.40
2023-04-06T20:14:57.197Z,13.33
2023-04-06T20:17:24.885Z,13.23
2023-04-06T20:19:53.841Z,12.90
2023-04-06T20:22:21.539Z,12.63
2023-04-06T20:24:49.064Z,12.90
2023-04-06T20:27:20.302Z,12.93
2023-04-06T20:30:19.516Z,13.23
2023-04-06T20:32:47.155Z,13.00
2023-04-06T20:35:14.724Z,13.90
2023-04-06T20:37:42.532Z,12.93
2023-04-06T20:40:13.641Z,14.00
2023-04-06T20:42:41.866Z,14.00
2023-04-06T20:45:09.633Z,22.80
2023-04-06T20:47:37.052Z,13.70
2023-04-06T20:50:04.482Z,15.17
2023-04-06T20:52:31.944Z,14.63
2023-04-06T20:55:01.296Z,15.33
2023-04-06T20:57:28.747Z,15.77
2023-04-06T20:59:56.221Z,16.37
2023-04-06T21:02:23.936Z,15.87
2023-04-06T21:04:51.503Z,15.60
2023-04-06T21:07:18.954Z,16.03
2023-04-06T21:09:47.259Z,17.10
2023-04-06T21:12:14.631Z,17.33
2023-04-06T21:14:42.225Z,17.13
2023-04-06T21:17:09.487Z,19.00
2023-04-06T21:19:36.911Z,17.47
2023-04-06T21:22:04.221Z,18.93
2023-04-06T21:24:31.519Z,19.17
